createdAt,value
2019-05-29T00:00:42.420Z,30.30
2019-05-29T00:03:14.797Z,30.30
2019-05-29T00:05:46.721Z,30.10
2019-05-29T00:08:18.589Z,30.20
2019-05-29T00:10:50.447Z,30.10
2019-05-29T00:13:22.445Z,30.30
2019-05-29T00:15:54.401Z,30.30
2019-05-29T00:18:26.372Z,30.30
2019-05-29T00:20:58.190Z,30.00
2019-05-29T00:23:30.311Z,30.00
2019-05-29T00:26:02.117Z,30.00
2019-05-29T00:28:33.996Z,30.00
2019-05-29T00:31:05.927Z,30.00
2019-05-29T00:33:37.875Z,30.00
2019-05-29T00:36:10.363Z,30.70
2019-05-29T00:38:42.296Z,30.60
2019-05-29T00:41:15.085Z,30.40
2019-05-29T00:43:47.348Z,30.40
2019-05-29T00:46:19.439Z,30.20
2019-05-29T00:48:51.471Z,30.30
2019-05-29T00:51:23.364Z,30.20
2019-05-29T00:53:55.428Z,30.00
2019-05-29T00:56:27.251Z,30.00
2019-05-29T00:58:59.290Z,30.10
2019-05-29T01:01:31.144Z,30.00
2019-05-29T01:04:03.152Z,30.20
2019-05-29T01:06:34.941Z,30.40
2019-05-29T01:09:10.355Z,30.40
2019-05-29T01:11:42.077Z,30.40
2019-05-29T01:14:15.145Z,30.40
2019-05-29T01:16:47.567Z,30.60
2019-05-29T01:19:25.480Z,30.60
2019-05-29T01:21:58.551Z,30.20
2019-05-29T01:24:30.470Z,29.80
2019-05-29T01:27:02.235Z,29.70
2019-05-29T01:29:34.058Z,29.60
2019-05-29T01:32:06.093Z,29.60
2019-05-29T01:34:37.850Z,29.70
2019-05-29T01:37:09.709Z,29.70
2019-05-29T01:39:41.493Z,29.60
2019-05-29T01:42:13.223Z,29.60
2019-05-29T01:44:45.224Z,29.70
2019-05-29T01:47:17.459Z,29.80
2019-05-29T01:49:49.768Z,29.70
2019-05-29T01:52:21.912Z,29.80
2019-05-29T01:54:54.099Z,29.70
2019-05-29T01:57:25.814Z,29.90
2019-05-29T01:59:57.923Z,30.00
2019-05-29T02:02:29.657Z,30.10
2019-05-29T02:05:01.557Z,30.10
2019-05-29T02:07:33.380Z,30.00
2019-05-29T02:10:05.968Z,30.10
2019-05-29T02:12:37.782Z,30.00
2019-05-29T02:15:22.869Z,30.00
2019-05-29T02:17:44.167Z,29.90
2019-05-29T02:20:19.372Z,30.00
2019-05-29T02:22:51.200Z,29.90
2019-05-29T02:25:24.494Z,29.80
2019-05-29T02:27:56.228Z,30.00
2019-05-29T02:30:30.673Z,29.90
2019-05-29T02:33:01.788Z,30.00
2019-05-29T02:35:34.027Z,29.90
2019-05-29T02:38:05.825Z,30.00
2019-05-29T02:40:37.739Z,29.80
2019-05-29T02:43:09.477Z,29.80
2019-05-29T02:45:53.555Z,29.60
2019-05-29T02:48:15.117Z,29.60
2019-05-29T02:50:47.335Z,29.50
2019-05-29T02:53:20.035Z,29.40
2019-05-29T02:55:52.441Z,29.20
2019-05-29T02:58:25.839Z,29.20
2019-05-29T03:00:58.375Z,29.20
2019-05-29T03:03:37.963Z,29.20
2019-05-29T03:06:04.652Z,29.10
2019-05-29T03:08:36.394Z,29.00
2019-05-29T03:11:08.476Z,28.90
2019-05-29T03:13:40.374Z,29.10
2019-05-29T03:16:13.266Z,29.40
2019-05-29T03:18:45.677Z,29.40
2019-05-29T03:21:17.544Z,29.60
2019-05-29T03:23:49.317Z,29.50
2019-05-29T03:26:24.641Z,29.20
2019-05-29T03:28:54.832Z,29.40
2019-05-29T03:31:30.027Z,29.00
2019-05-29T03:34:00.170Z,29.10
2019-05-29T03:36:39.607Z,29.30
2019-05-29T03:39:06.854Z,29.10
2019-05-29T03:41:39.130Z,29.10
2019-05-29T03:44:11.532Z,29.10
2019-05-29T03:46:45.876Z,29.00
2019-05-29T03:49:17.477Z,29.00
2019-05-29T03:51:49.643Z,28.90
2019-05-29T03:54:21.460Z,28.60
2019-05-29T03:56:53.334Z,28.80
2019-05-29T03:59:26.726Z,28.80
2019-05-29T04:01:59.286Z,28.50
2019-05-29T04:04:31.813Z,28.70
2019-05-29T04:07:04.860Z,28.60
2019-05-29T04:09:37.370Z,28.20
2019-05-29T04:12:09.945Z,28.00
2019-05-29T04:14:42.209Z,28.10
2019-05-29T04:17:16.733Z,28.20
2019-05-29T04:19:48.884Z,28.40
2019-05-29T04:22:28.195Z,28.20
2019-05-29T04:25:04.331Z,28.10
2019-05-29T04:27:38.927Z,28.00
2019-05-29T04:30:11.453Z,28.20
2019-05-29T04:32:43.280Z,28.10
2019-05-29T04:35:15.237Z,28.00
2019-05-29T04:37:47.451Z,28.10
2019-05-29T04:40:19.296Z,27.90
2019-05-29T04:42:51.245Z,28.00
2019-05-29T04:45:23.982Z,28.30
2019-05-29T04:47:55.825Z,28.20
2019-05-29T04:50:29.020Z,27.90
2019-05-29T04:53:01.330Z,27.90
2019-05-29T04:55:33.170Z,27.90
2019-05-29T04:58:05.030Z,28.20
2019-05-29T05:00:37.264Z,28.00
2019-05-29T05:03:09.408Z,28.40
2019-05-29T05:05:41.460Z,28.00
2019-05-29T05:08:13.425Z,28.30
2019-05-29T05:10:46.067Z,28.10
2019-05-29T05:13:18.067Z,27.80
2019-05-29T05:15:52.986Z,28.20
2019-05-29T05:18:25.071Z,28.40
2019-05-29T05:20:56.940Z,28.10
2019-05-29T05:23:30.018Z,28.40
2019-05-29T05:26:01.964Z,27.80
2019-05-29T05:28:34.385Z,27.90
2019-05-29T05:31:06.338Z,27.70
2019-05-29T05:33:38.655Z,28.10
2019-05-29T05:36:10.981Z,27.90
2019-05-29T05:38:43.018Z,27.70
2019-05-29T05:41:14.872Z,27.50
2019-05-29T05:43:46.662Z,27.60
2019-05-29T05:46:18.451Z,27.50
2019-05-29T05:48:50.417Z,27.10
2019-05-29T05:51:22.506Z,27.20
2019-05-29T05:53:54.939Z,26.70
2019-05-29T05:56:26.814Z,27.30
2019-05-29T05:58:58.959Z,27.40
2019-05-29T06:01:31.718Z,27.20
2019-05-29T06:04:03.996Z,27.20
2019-05-29T06:06:36.233Z,27.20
2019-05-29T06:09:09.671Z,27.20
2019-05-29T06:11:42.545Z,27.20
2019-05-29T06:14:14.824Z,27.30
2019-05-29T06:16:47.758Z,27.50
2019-05-29T06:19:19.887Z,27.10
2019-05-29T06:21:52.033Z,27.20
2019-05-29T06:24:24.256Z,26.90
2019-05-29T06:26:56.177Z,27.40
2019-05-29T06:29:28.346Z,27.50
2019-05-29T06:32:00.165Z,27.20
2019-05-29T06:34:33.494Z,27.20
2019-05-29T06:37:06.070Z,27.00
2019-05-29T06:39:37.915Z,27.10
2019-05-29T06:42:10.222Z,27.00
2019-05-29T06:44:44.861Z,27.10
2019-05-29T06:47:16.337Z,27.10
2019-05-29T06:49:48.882Z,26.90
2019-05-29T06:52:21.946Z,26.90
2019-05-29T06:54:54.326Z,27.10
2019-05-29T06:57:26.313Z,27.10
2019-05-29T07:00:00.033Z,27.40
2019-05-29T07:02:32.763Z,27.20
2019-05-29T07:05:05.506Z,27.20
2019-05-29T07:07:38.376Z,27.30
2019-05-29T07:10:11.148Z,27.20
2019-05-29T07:12:44.513Z,26.70
2019-05-29T07:15:18.513Z,27.10
2019-05-29T07:17:50.612Z,27.10
2019-05-29T07:20:22.666Z,26.80
2019-05-29T07:22:54.802Z,27.10
2019-05-29T07:25:26.905Z,26.70
2019-05-29T07:27:58.715Z,27.00
2019-05-29T07:30:32.673Z,27.00
2019-05-29T07:33:04.536Z,27.00
2019-05-29T07:39:55.039Z,27.20
2019-05-29T07:42:26.804Z,26.90
2019-05-29T07:44:58.885Z,27.00
2019-05-29T07:47:30.721Z,27.10
2019-05-29T07:50:02.814Z,27.10
2019-05-29T07:52:35.991Z,27.30
2019-05-29T07:55:08.931Z,26.80
2019-05-29T07:57:40.970Z,26.90
2019-05-29T08:00:15.129Z,26.90
2019-05-29T08:02:47.497Z,26.90
2019-05-29T08:05:19.629Z,27.20
2019-05-29T08:07:51.413Z,27.30
2019-05-29T08:10:23.851Z,27.30
2019-05-29T08:12:56.120Z,27.40
2019-05-29T08:15:28.128Z,27.40
2019-05-29T08:17:59.948Z,27.10
2019-05-29T08:20:31.821Z,27.30
2019-05-29T08:23:03.640Z,27.00
2019-05-29T08:25:36.045Z,27.20
2019-05-29T08:28:07.928Z,27.20
2019-05-29T08:30:41.155Z,27.20
2019-05-29T08:33:13.523Z,26.60
2019-05-29T08:35:45.472Z,26.10
2019-05-29T08:38:17.308Z,26.00
2019-05-29T08:40:49.599Z,26.20
2019-05-29T08:43:21.440Z,26.40
2019-05-29T08:45:53.351Z,26.10
2019-05-29T08:48:26.188Z,26.00
2019-05-29T08:50:58.041Z,26.20
2019-05-29T08:53:29.973Z,26.00
2019-05-29T08:56:02.229Z,26.30
2019-05-29T08:58:37.137Z,26.00
2019-05-29T09:01:07.714Z,26.10
2019-05-29T09:03:39.672Z,26.20
2019-05-29T09:06:13.747Z,26.10
2019-05-29T09:08:46.674Z,26.40
2019-05-29T09:11:19.982Z,25.60
2019-05-29T09:13:53.077Z,26.40
2019-05-29T09:16:25.131Z,26.00
2019-05-29T09:18:57.005Z,26.40
2019-05-29T09:21:29.194Z,26.30
2019-05-29T09:24:00.992Z,25.80
2019-05-29T09:26:33.035Z,26.30
2019-05-29T09:29:04.810Z,25.80
2019-05-29T09:31:36.658Z,25.80
2019-05-29T09:34:08.443Z,25.90
2019-05-29T09:36:40.636Z,26.10
2019-05-29T09:39:12.787Z,24.90
2019-05-29T09:41:44.983Z,25.20
2019-05-29T09:44:32.919Z,25.70
2019-05-29T09:46:50.655Z,25.30
2019-05-29T09:49:23.870Z,26.00
2019-05-29T09:51:57.917Z,25.50
2019-05-29T09:54:29.922Z,24.70
2019-05-29T09:57:02.846Z,25.00
2019-05-29T09:59:34.869Z,25.30
2019-05-29T10:02:08.816Z,25.40
2019-05-29T10:04:40.703Z,25.10
2019-05-29T10:07:12.819Z,25.80
2019-05-29T10:09:44.608Z,25.80
2019-05-29T10:12:16.769Z,25.70
2019-05-29T10:14:51.334Z,26.00
2019-05-29T10:17:22.154Z,26.40
2019-05-29T10:19:55.367Z,26.10
2019-05-29T10:22:27.882Z,25.90
2019-05-29T10:25:00.052Z,26.40
2019-05-29T10:27:33.025Z,26.30
2019-05-29T10:30:05.296Z,25.70
2019-05-29T10:32:37.253Z,25.90
2019-05-29T10:35:09.087Z,26.00
2019-05-29T10:37:42.585Z,25.60
2019-05-29T10:40:15.581Z,26.20
2019-05-29T10:42:49.013Z,25.70
2019-05-29T10:45:21.423Z,25.20
2019-05-29T10:47:54.104Z,25.60
2019-05-29T10:50:26.007Z,25.70
2019-05-29T10:52:58.097Z,25.80
2019-05-29T10:55:29.924Z,25.80
2019-05-29T10:58:01.986Z,25.50
2019-05-29T11:00:37.982Z,25.80
2019-05-29T11:03:07.795Z,25.50
2019-05-29T11:05:39.547Z,25.60
2019-05-29T11:08:11.643Z,25.40
2019-05-29T11:10:43.406Z,26.00
2019-05-29T11:13:15.869Z,24.50
2019-05-29T11:15:48.563Z,24.90
2019-05-29T11:18:20.719Z,24.80
2019-05-29T11:20:53.456Z,24.00
2019-05-29T11:23:25.429Z,24.80
2019-05-29T11:25:58.199Z,24.20
2019-05-29T11:28:30.507Z,24.10
2019-05-29T11:31:06.175Z,24.60
2019-05-29T11:33:36.077Z,24.50
2019-05-29T11:36:12.585Z,24.40
2019-05-29T11:38:41.648Z,24.20
2019-05-29T11:41:25.901Z,24.80
2019-05-29T11:43:47.843Z,25.30
2019-05-29T11:46:19.653Z,23.40
2019-05-29T11:48:51.544Z,24.10
2019-05-29T11:51:23.894Z,23.30
2019-05-29T11:53:55.977Z,23.30
2019-05-29T11:56:27.939Z,24.00
2019-05-29T11:59:00.237Z,23.80
2019-05-29T12:01:48.979Z,23.20
2019-05-29T12:04:22.986Z,23.90
2019-05-29T12:06:40.449Z,23.80
2019-05-29T12:09:13.222Z,22.70
2019-05-29T12:11:45.047Z,23.20
2019-05-29T12:14:17.158Z,23.80
2019-05-29T12:16:48.930Z,23.00
2019-05-29T12:19:22.091Z,22.60
2019-05-29T12:21:54.449Z,22.50
2019-05-29T12:24:27.327Z,23.40
2019-05-29T12:26:59.120Z,23.50
2019-05-29T12:29:31.153Z,22.50
2019-05-29T12:32:08.146Z,23.60
2019-05-29T12:34:36.729Z,23.90
2019-05-29T12:37:08.607Z,23.00
2019-05-29T12:39:40.634Z,23.50
2019-05-29T12:42:12.425Z,23.00
2019-05-29T12:44:44.607Z,23.70
2019-05-29T12:47:16.361Z,23.30
2019-05-29T12:49:48.255Z,24.20
2019-05-29T12:52:20.053Z,23.10
2019-05-29T12:54:52.234Z,23.20
2019-05-29T12:57:24.042Z,22.80
2019-05-29T12:59:56.251Z,23.70
2019-05-29T13:02:28.026Z,23.00
2019-05-29T13:05:08.381Z,23.30
2019-05-29T13:07:33.554Z,24.20
2019-05-29T13:10:06.565Z,22.60
2019-05-29T13:12:39.531Z,23.10
2019-05-29T13:15:14.070Z,22.50
2019-05-29T13:17:45.956Z,22.30
2019-05-29T13:20:22.036Z,22.90
2019-05-29T13:22:52.285Z,22.80
2019-05-29T13:25:25.723Z,22.50
2019-05-29T13:27:59.407Z,22.00
2019-05-29T13:30:32.225Z,22.70
2019-05-29T13:33:07.392Z,23.30
2019-05-29T13:35:37.899Z,22.70
2019-05-29T13:38:09.933Z,23.00
2019-05-29T13:40:41.870Z,23.50
2019-05-29T13:43:15.810Z,22.30
2019-05-29T13:45:47.686Z,23.60
2019-05-29T13:48:21.333Z,22.60
2019-05-29T13:50:53.309Z,22.30
2019-05-29T13:53:25.121Z,22.00
2019-05-29T13:55:57.745Z,21.30
2019-05-29T13:58:29.629Z,21.70
2019-05-29T14:01:02.477Z,21.80
2019-05-29T14:03:35.351Z,21.20
2019-05-29T14:06:09.356Z,21.40
2019-05-29T14:08:41.095Z,21.70
2019-05-29T14:11:12.989Z,21.40
2019-05-29T14:13:44.928Z,21.80
2019-05-29T14:16:17.181Z,21.70
2019-05-29T14:18:49.110Z,21.50
2019-05-29T14:21:21.003Z,21.50
2019-05-29T14:23:52.910Z,21.40
2019-05-29T14:26:24.863Z,21.40
2019-05-29T14:28:56.662Z,21.50
2019-05-29T14:31:28.965Z,21.20
2019-05-29T14:34:00.962Z,22.30
2019-05-29T14:36:32.994Z,21.40
2019-05-29T14:39:07.603Z,20.70
2019-05-29T14:41:40.137Z,21.30
2019-05-29T14:44:12.124Z,20.90
2019-05-29T14:46:44.267Z,20.00
2019-05-29T14:49:16.039Z,19.20
2019-05-29T14:51:47.907Z,18.80
2019-05-29T14:54:19.705Z,18.10
2019-05-29T14:56:51.605Z,17.30
2019-05-29T14:59:23.458Z,17.50
2019-05-29T15:01:56.012Z,17.10
2019-05-29T15:04:27.825Z,16.90
2019-05-29T15:07:00.043Z,17.40
2019-05-29T15:09:31.838Z,17.80
2019-05-29T15:12:04.037Z,18.00
2019-05-29T15:14:35.905Z,18.60
2019-05-29T15:17:09.041Z,18.00
2019-05-29T15:19:41.052Z,18.80
2019-05-29T15:22:14.145Z,18.10
2019-05-29T15:25:01.505Z,18.50
2019-05-29T15:27:20.250Z,18.80
2019-05-29T15:29:52.045Z,18.20
2019-05-29T15:32:24.377Z,18.90
2019-05-29T15:34:56.182Z,19.30
2019-05-29T15:37:28.109Z,18.60
2019-05-29T15:39:59.936Z,18.90
2019-05-29T15:42:32.174Z,18.50
2019-05-29T15:45:04.096Z,19.10
2019-05-29T15:47:36.580Z,19.40
2019-05-29T15:50:09.199Z,19.10
2019-05-29T15:52:41.288Z,19.80
2019-05-29T15:55:28.422Z,19.40
2019-05-29T15:57:49.024Z,20.10
2019-05-29T16:00:22.024Z,19.80
2019-05-29T16:02:54.602Z,19.80
2019-05-29T16:05:26.394Z,19.60
2019-05-29T16:07:58.282Z,19.70
2019-05-29T16:10:30.110Z,20.30
2019-05-29T16:13:01.925Z,20.30
2019-05-29T16:15:33.758Z,20.00
2019-05-29T16:18:19.021Z,20.30
2019-05-29T16:20:39.294Z,20.20
2019-05-29T16:23:12.534Z,19.90
2019-05-29T16:25:44.723Z,19.20
2019-05-29T16:28:17.274Z,19.80
2019-05-29T16:30:49.312Z,19.40
2019-05-29T16:33:21.653Z,19.90
2019-05-29T16:35:53.682Z,19.20
2019-05-29T16:38:27.030Z,19.80
2019-05-29T16:40:58.883Z,20.00
2019-05-29T16:43:30.841Z,19.80
2019-05-29T16:46:02.746Z,19.60
2019-05-29T16:48:34.966Z,20.20
2019-05-29T16:51:06.780Z,20.20
2019-05-29T16:53:39.841Z,19.40
2019-05-29T16:56:12.719Z,19.30
2019-05-29T16:58:44.631Z,19.70
2019-05-29T17:01:17.387Z,19.00
2019-05-29T17:03:49.679Z,19.50
2019-05-29T17:06:22.452Z,19.80
2019-05-29T17:08:55.595Z,19.80
2019-05-29T17:11:27.408Z,20.50
2019-05-29T17:13:59.268Z,19.80
2019-05-29T17:16:31.146Z,19.70
2019-05-29T17:19:04.470Z,19.90
2019-05-29T17:21:36.395Z,19.90
2019-05-29T17:24:08.496Z,20.30
2019-05-29T17:26:40.522Z,20.80
2019-05-29T17:29:12.878Z,20.10
2019-05-29T17:31:44.840Z,20.20
2019-05-29T17:34:18.939Z,20.50
2019-05-29T17:36:52.689Z,20.00
2019-05-29T17:39:25.193Z,19.90
2019-05-29T17:41:57.368Z,20.00
2019-05-29T17:44:29.270Z,20.30
2019-05-29T17:47:01.191Z,19.80
2019-05-29T17:49:34.767Z,20.10
2019-05-29T17:52:06.937Z,19.60
2019-05-29T17:54:39.029Z,19.90
2019-05-29T17:57:10.937Z,19.10
2019-05-29T17:59:42.814Z,20.30
2019-05-29T18:02:15.967Z,20.10
2019-05-29T18:04:48.413Z,19.70
2019-05-29T18:07:20.614Z,19.30
2019-05-29T18:09:52.630Z,19.30
2019-05-29T18:12:25.096Z,19.40
2019-05-29T18:14:57.546Z,19.60
2019-05-29T18:17:29.487Z,20.00
2019-05-29T18:20:01.526Z,19.80
2019-05-29T18:22:33.436Z,19.80
2019-05-29T18:25:06.815Z,19.40
2019-05-29T18:27:38.583Z,19.50
2019-05-29T18:30:11.824Z,20.00
2019-05-29T18:32:43.770Z,20.20
2019-05-29T18:35:16.914Z,19.80
2019-05-29T18:37:48.827Z,20.00
2019-05-29T18:40:22.302Z,19.90
2019-05-29T18:42:54.509Z,20.50
2019-05-29T18:45:27.744Z,20.20
2019-05-29T18:48:01.469Z,20.50
2019-05-29T18:50:33.556Z,20.40
2019-05-29T18:53:05.479Z,20.10
2019-05-29T18:55:37.406Z,19.20
2019-05-29T18:58:09.238Z,19.60
2019-05-29T19:00:41.362Z,19.70
2019-05-29T19:03:13.122Z,19.40
2019-05-29T19:05:45.686Z,18.20
2019-05-29T19:08:17.888Z,19.30
2019-05-29T19:10:50.226Z,19.20
2019-05-29T19:13:23.446Z,19.00
2019-05-29T19:15:55.872Z,19.00
2019-05-29T19:18:28.273Z,18.70
2019-05-29T19:21:00.179Z,17.70
2019-05-29T19:23:32.960Z,18.20
2019-05-29T19:26:04.915Z,17.80
2019-05-29T19:28:37.215Z,18.00
2019-05-29T19:31:09.148Z,17.80
2019-05-29T19:33:41.028Z,18.40
2019-05-29T19:36:14.663Z,18.70
2019-05-29T19:38:46.502Z,18.00
2019-05-29T19:41:18.310Z,18.30
2019-05-29T19:43:50.144Z,18.00
2019-05-29T19:46:22.043Z,18.30
2019-05-29T19:48:53.918Z,18.50
2019-05-29T19:51:27.267Z,18.40
2019-05-29T19:53:59.301Z,17.90
2019-05-29T19:56:31.733Z,17.90
2019-05-29T19:59:04.052Z,17.70
2019-05-29T20:01:40.236Z,17.60
2019-05-29T20:04:09.546Z,17.20
2019-05-29T20:06:41.414Z,17.90
2019-05-29T20:09:13.254Z,18.10
2019-05-29T20:11:45.331Z,18.20
2019-05-29T20:14:17.370Z,18.50
2019-05-29T20:16:49.478Z,18.30
2019-05-29T20:19:21.304Z,18.20
2019-05-29T20:21:53.622Z,18.50
2019-05-29T20:24:26.718Z,18.40
2019-05-29T20:26:59.913Z,18.00
2019-05-29T20:29:32.399Z,17.80
2019-05-29T20:32:04.749Z,17.70
2019-05-29T20:34:36.916Z,18.10
2019-05-29T20:37:09.268Z,17.90
2019-05-29T20:39:41.018Z,18.00
2019-05-29T20:42:13.108Z,17.80
2019-05-29T20:44:44.880Z,18.00
2019-05-29T20:47:16.943Z,18.10
2019-05-29T20:49:48.753Z,17.70
2019-05-29T20:52:21.271Z,18.10
2019-05-29T20:54:53.236Z,18.30
2019-05-29T20:57:26.933Z,18.30
2019-05-29T20:59:59.032Z,17.90
2019-05-29T21:02:32.005Z,17.70
2019-05-29T21:05:04.394Z,17.90
2019-05-29T21:07:36.709Z,18.20
2019-05-29T21:10:10.770Z,18.30
2019-05-29T21:12:46.123Z,18.00
2019-05-29T21:15:18.318Z,18.00
2019-05-29T21:17:50.426Z,18.50
2019-05-29T21:20:22.328Z,18.30
2019-05-29T21:22:54.208Z,18.20
2019-05-29T21:25:26.916Z,18.50
2019-05-29T21:27:58.763Z,18.40
2019-05-29T21:30:30.541Z,18.40
2019-05-29T21:33:02.626Z,18.10
2019-05-29T21:35:34.454Z,18.20
2019-05-29T21:38:06.688Z,18.60
2019-05-29T21:40:38.518Z,18.40
2019-05-29T21:43:10.580Z,18.10
2019-05-29T21:45:43.119Z,18.00
2019-05-29T21:48:15.082Z,18.30
2019-05-29T21:50:47.406Z,18.40
2019-05-29T21:53:19.959Z,18.30
2019-05-29T21:55:51.768Z,18.40
2019-05-29T21:58:25.347Z,18.10
2019-05-29T22:00:57.401Z,18.30
2019-05-29T22:03:29.792Z,18.60
2019-05-29T22:06:01.554Z,18.50
2019-05-29T22:08:33.729Z,18.30
2019-05-29T22:11:05.496Z,18.50
2019-05-29T22:13:37.629Z,18.30
2019-05-29T22:16:09.383Z,18.30
2019-05-29T22:18:41.450Z,18.50
2019-05-29T22:21:13.231Z,18.40
2019-05-29T22:23:45.474Z,18.30
2019-05-29T22:26:17.606Z,18.70
2019-05-29T22:28:51.137Z,19.00
2019-05-29T22:31:23.266Z,18.60
2019-05-29T22:33:57.479Z,19.40
2019-05-29T22:36:29.360Z,19.20
2019-05-29T22:39:01.841Z,19.10
2019-05-29T22:41:35.447Z,19.40
2019-05-29T22:44:07.664Z,19.30
2019-05-29T22:46:40.573Z,19.40
2019-05-29T22:49:12.588Z,19.30
2019-05-29T22:51:45.523Z,19.20
2019-05-29T22:54:17.700Z,19.30
2019-05-29T22:56:49.478Z,19.40
2019-05-29T22:59:31.437Z,19.50
2019-05-29T23:01:56.292Z,19.00
2019-05-29T23:04:28.489Z,19.80
2019-05-29T23:07:00.473Z,19.70
2019-05-29T23:09:33.900Z,19.90
2019-05-29T23:12:05.858Z,20.10
2019-05-29T23:14:37.716Z,20.30
2019-05-29T23:17:09.467Z,20.20
2019-05-29T23:19:41.906Z,19.80
2019-05-29T23:22:13.646Z,20.20
2019-05-29T23:24:45.761Z,20.20
2019-05-29T23:27:17.491Z,20.00
2019-05-29T23:29:49.673Z,20.20
2019-05-29T23:32:21.498Z,20.30
2019-05-29T23:34:54.904Z,19.90
2019-05-29T23:37:26.835Z,20.30
2019-05-29T23:39:59.367Z,20.40
2019-05-29T23:42:31.173Z,20.10
2019-05-29T23:45:03.779Z,20.20
2019-05-29T23:47:35.837Z,20.60
2019-05-29T23:50:08.460Z,20.80
2019-05-29T23:52:40.333Z,20.60
2019-05-29T23:55:12.715Z,20.30
2019-05-29T23:57:44.548Z,20.30
